This is the latest recevied weather packets stored in our database for station/object W9QL-13. If no packets are shown the sender has not sent any weather packets the latest 1 day(s).
| Time | Temp. | Humidity | Pressure | Rain* | Wind** | Luminosity | Snow |
|---|---|---|---|---|---|---|---|
| 1777998001 | 12.22° C | 40% | 1007.5 hPa | 0 mm | 0.89 m/s, 308° | - | - |
| 1777997701 | 12.22° C | 41% | 1007.5 hPa | 0 mm | 2.24 m/s, 340° | - | - |
| 1777997401 | 12.22° C | 42% | 1007.5 hPa | 0 mm | 0.89 m/s, 307° | - | - |
| 1777997101 | 11.67° C | 44% | 1007.5 hPa | 0 mm | 0.45 m/s, 345° | - | - |
| 1777996771 | 11.67° C | 43% | 1007.4 hPa | 0 mm | 0.45 m/s, 320° | - | - |
| 1777996440 | 11.67° C | 41% | 1007.5 hPa | 0 mm | 2.24 m/s, 1° | - | - |
| 1777996140 | 11.67° C | 43% | 1007.5 hPa | 0 mm | 0.45 m/s, 337° | - | - |
| 1777995840 | 11.67° C | 44% | 1007.4 hPa | 0 mm | 1.34 m/s, 343° | - | - |
| 1777995542 | 11.11° C | 45% | 1007.4 hPa | 0 mm | 1.34 m/s, 304° | - | - |
| 1777995210 | 11.11° C | 45% | 1007.4 hPa | 0 mm | 1.34 m/s, 322° | - | - |
| 1777994913 | 11.11° C | 43% | 1007.5 hPa | 0 mm | 2.24 m/s, 352° | - | - |
| 1777994610 | 11.11° C | 45% | 1007.5 hPa | 0 mm | 0.89 m/s, 342° | - | - |
| 1777994280 | 10.56° C | 45% | 1007.6 hPa | 0 mm | 0.45 m/s, 269° | - | - |
| 1777993980 | 10.56° C | 46% | 1007.7 hPa | 0 mm | 0.89 m/s, 350° | - | - |
| 1777993680 | 10.56° C | 46% | 1007.6 hPa | 0 mm | 0.89 m/s, 328° | - | - |
| 1777993350 | 10.56° C | 45% | 1007.6 hPa | 0 mm | 0.89 m/s, 331° | - | - |
| 1777993050 | 11.11° C | 45% | 1007.6 hPa | 0 mm | 0.89 m/s, 321° | - | - |
| 1777992750 | 11.11° C | 45% | 1007.5 hPa | 0 mm | 0.45 m/s, 329° | - | - |
| 1777992450 | 11.67° C | 45% | 1007.5 hPa | 0 mm | 0.89 m/s, 319° | - | - |
| 1777992150 | 11.67° C | 45% | 1007.6 hPa | 0 mm | 1.34 m/s, 319° | - | - |
| 1777991850 | 11.11° C | 47% | 1007.5 hPa | 0 mm | 0.89 m/s, 300° | - | - |
| 1777991550 | 11.11° C | 46% | 1007.5 hPa | 0 mm | 0 m/s | - | - |
| 1777991255 | 11.11° C | 45% | 1007.6 hPa | 0 mm | 2.24 m/s, 10° | - | - |
| 1777990950 | 10.56° C | 47% | 1007.7 hPa | 0 mm | 1.34 m/s, 312° | - | - |
| 1777990650 | 10.56° C | 47% | 1007.9 hPa | 0 mm | 0.89 m/s, 308° | - | - |
* Rain latest hour (hover to see other rain measurements)
** Current wind speed in m/s (hover to see current wind gust speed)